Bodega Marine Reserve, California Weather observations

Data are for 10 minute period ending at time listed.
 Day   Time   Solar   Ave.   Ave.  Ave.  Vector  Max.   Baro.   Total    
  of    of     Rad.   Air    Rel.  Wind   Wind   Wind  Press.  Precip.   
Year   Day            Temp.  Hum.  Speed  Dir.   Gust                    
2017   (PST)  Kw/m2    F      %     mph   deg.    mph    mb.     in.     
-------------------------------------------------------------------------
 261    4:10   100.00  99999.0   99999  99999.0   99999   99999.0   99999.0   99999.00 
 261    4:20   100.00  99999.0   99999  99999.0   99999   99999.0   99999.0   99999.00 
 261    4:30   100.00  99999.0   99999  99999.0   99999   99999.0   99999.0   99999.00 
 261    4:40   100.00  99999.0   99999  99999.0   99999   99999.0   99999.0   99999.00 
 261    4:50   100.00  99999.0   99999  99999.0   99999   99999.0   99999.0   99999.00 
 261    5:00   100.00  99999.0   99999  99999.0   99999   99999.0   99999.0   99999.00 
 261    5:10   0.00  -39.3     0    9.4   316    12.3   1011.2    0.00 
 261    5:20   0.00  -39.3     0    8.5   321    12.0   1011.2    0.00 
 261    5:30   0.00  -39.3     0    9.8   318    14.5   1011.2    0.00 
 261    5:40   0.00  -39.3     0   12.3   304    17.4   1011.2    0.00 
 261    5:50   0.00  -39.3     0   14.6   298    20.2   1011.2    0.00 
 261    6:00   0.00  -39.3     0   13.3   297    18.8   1011.2    0.00 
 261    6:10   100.00  99999.0   99999  99999.0   99999   99999.0   99999.0   99999.00 
 261    6:20   100.00  99999.0   99999  99999.0   99999   99999.0   99999.0   99999.00 
 261    6:30   100.00  99999.0   99999  99999.0   99999   99999.0   99999.0   99999.00 
 261    6:40   100.00  99999.0   99999  99999.0   99999   99999.0   99999.0   99999.00 
 261    6:50   100.00  99999.0   99999  99999.0   99999   99999.0   99999.0   99999.00 
 261    7:00   100.00  99999.0   99999  99999.0   99999   99999.0   99999.0   99999.00 
 261    7:10   0.01  -39.3     0    5.1   302     8.0   1011.2    0.00 
 261    7:20   0.01  -39.2     0    5.8   298     7.7   1011.2    0.00 
 261    7:30   0.01  -39.2     0    6.7   302     9.8   1011.5    0.00 
 261    7:40   0.01  -39.3     0    7.4   306     9.7   1011.5    0.00 
 261    7:50   0.01  -39.2     0    9.1   310    12.9   1011.9    0.00 
 261    8:00   0.01  -39.3     0    9.7   311    12.7   1012.2    0.00 
 261    8:10   100.00  99999.0   99999  99999.0   99999   99999.0   99999.0   99999.00 
 261    8:20   100.00  99999.0   99999  99999.0   99999   99999.0   99999.0   99999.00 
 261    8:30   100.00  99999.0   99999  99999.0   99999   99999.0   99999.0   99999.00 
 261    8:40   100.00  99999.0   99999  99999.0   99999   99999.0   99999.0   99999.00 
 261    8:50   100.00  99999.0   99999  99999.0   99999   99999.0   99999.0   99999.00 
 261    9:00   100.00  99999.0   99999  99999.0   99999   99999.0   99999.0   99999.00 
 261    9:10   0.01  -39.2     0    7.4   300    10.4   1012.5    0.00 
 261    9:20   0.01  -39.2     0    6.2   310     8.3   1012.5    0.00 
 261    9:30   0.01  -39.2     0    6.6   316     9.1   1012.5    0.00 
 261    9:40   0.01  -39.3     0    9.5   311    13.6   1012.9    0.00 
 261    9:50   0.01  -39.2     0    8.1   318    11.7   1012.9    0.00 
 261   10:00   0.01  -39.2     0    9.2   306    12.3   1012.9    0.00 
 261   10:10   100.00  99999.0   99999  99999.0   99999   99999.0   99999.0   99999.00 
 261   10:20   100.00  99999.0   99999  99999.0   99999   99999.0   99999.0   99999.00 
 261   10:30   100.00  99999.0   99999  99999.0   99999   99999.0   99999.0   99999.00 
 261   10:40   100.00  99999.0   99999  99999.0   99999   99999.0   99999.0   99999.00 
 261   10:50   100.00  99999.0   99999  99999.0   99999   99999.0   99999.0   99999.00 
 261   11:00   100.00  99999.0   99999  99999.0   99999   99999.0   99999.0   99999.00 
 261   11:10   100.00  99999.0   99999  99999.0   99999   99999.0   99999.0   99999.00 
 261   11:20   100.00  99999.0   99999  99999.0   99999   99999.0   99999.0   99999.00 
 261   11:30   100.00  99999.0   99999  99999.0   99999   99999.0   99999.0   99999.00 
 261   11:40   100.00  99999.0   99999  99999.0   99999   99999.0   99999.0   99999.00 
 261   11:50   100.00  99999.0   99999  99999.0   99999   99999.0   99999.0   99999.00 
 261   12:00   100.00  99999.0   99999  99999.0   99999   99999.0   99999.0   99999.00 
 261   12:10   0.01  -39.0     2   13.9   321    19.9   1012.9    0.00 
 261   12:20   0.01  -39.0     2   15.1   307    20.6   1012.9    0.00 
 261   12:30   0.01  -39.1     2   14.1   294    20.5   1012.9    0.00 
 261   12:40   0.01  -39.1     2   14.3   290    19.4   1012.9    0.00 
 261   12:50   0.01  -39.1     2   14.3   290    22.8   1012.5    0.00 
 261   13:00   0.01  -39.1     2   15.6   297    21.0   1012.5    0.00 
 261   13:10   0.01  -38.5     1   15.8   296    22.9   1012.5    0.00 
 261   13:20   0.01  -35.2     1   15.1   291    21.6   1012.9    0.00 
 261   13:30   0.01  -29.6     1   16.8   298    23.5   1012.5    0.00 
 261   13:40   0.01  -23.3     1   17.8   294    24.0   1012.5    0.00 
 261   13:50   0.01  -14.7     1   15.5   295    21.0   1012.5    0.00 
 261   14:00   0.01   -9.2     1   17.0   288    23.2   1012.5    0.00 
 261   14:10   100.00  99999.0   99999  99999.0   99999   99999.0   99999.0   99999.00 
 261   14:20   100.00  99999.0   99999  99999.0   99999   99999.0   99999.0   99999.00 
 261   14:30   100.00  99999.0   99999  99999.0   99999   99999.0   99999.0   99999.00 
 261   14:40   100.00  99999.0   99999  99999.0   99999   99999.0   99999.0   99999.00 
 261   14:50   100.00  99999.0   99999  99999.0   99999   99999.0   99999.0   99999.00 
 261   15:00   100.00  99999.0   99999  99999.0   99999   99999.0   99999.0   99999.00 
 261   15:10   0.01   10.8     1   16.5   288    22.8   1011.9    0.00 
 261   15:20   0.01   11.7     1   15.2   291    21.0   1011.9    0.00 
 261   15:30   0.01   11.1     1   16.0   291    21.4   1011.9    0.00 
 261   15:40   0.01   12.1     1   15.6   289    20.5   1011.9    0.00 
 261   15:50   0.01   13.2     1   16.5   291    24.8   1011.9    0.00 
 261   16:00   0.01   14.1     1   17.5   292    24.5   1011.5    0.00 
 261   16:10   0.01   13.4     1   21.2   294    28.5   1011.5    0.00 
 261   16:20   0.01   14.2     1   21.9   294    30.0   1011.5    0.00 
 261   16:30   0.01   14.6     1   22.3   295    31.0   1011.2    0.00 
 261   16:40   0.01   15.2     1   24.0   296    32.7   1011.2    0.00 
 261   16:50   0.01   16.6     1   23.4   299    32.2   1011.2    0.00 
 261   17:00   0.01   17.8     1   22.1   300    29.3   1011.2    0.00 
 261   17:10   0.00   18.4     1   21.4   302    28.7   1011.2    0.00 
 261   17:20   0.00   18.8     1   21.1   302    29.5   1011.2    0.00 
 261   17:30   0.00   19.4     1   20.1   303    27.0   1011.2    0.00 
 261   17:40   0.00   19.4     1   19.7   302    27.1   1011.5    0.00 
 261   17:50   0.00   19.6     1   20.2   300    26.5   1011.5    0.00 
 261   18:00   0.00   20.1     1   20.9   301    29.4   1011.5    0.00 
 261   18:10   0.00   20.9     1   19.8   302    28.1   1011.5    0.00 
 261   18:20   0.00   21.6     1   20.2   299    26.9   1011.2    0.00 
 261   18:30   0.00   22.4     1   20.8   295    27.4   1011.2    0.00 
 261   18:40   0.00   22.7     0   20.6   298    25.2   1011.5    0.00 
 261   18:50   0.00   23.2     1   17.8   299    24.5   1011.5    0.00 
 261   19:00   0.00   23.4     0   17.8   301    25.7   1011.5    0.00 
 261   19:10   0.00   23.7     0   17.6   302    23.8   1011.5    0.00 
 261   19:20   0.00   23.8     0   17.0   302    22.6   1011.5    0.00 
 261   19:30   0.00   23.9     1   16.9   302    22.7   1011.5    0.00 
 261   19:40   0.00   24.0     0   18.5   296    23.7   1011.9    0.00 
 261   19:50   0.00   24.0     0   17.3   295    22.9   1011.9    0.00 
 261   20:00   0.00   24.1     0   16.8   298    22.8   1011.9    0.00 
 261   20:10   0.00   24.5     0   15.6   302    20.2   1012.2    0.00 
 261   20:20   0.00   24.7     0   14.8   306    19.4   1012.2    0.00 
 261   20:30   0.00   25.0     0   14.7   303    20.5   1012.2    0.00 
 261   20:40   0.00   25.1     0   16.2   302    21.5   1012.2    0.00 
 261   20:50   0.00   25.5     0   17.5   304    23.4   1012.2    0.00 
 261   21:00   0.00   25.9     0   19.0   303    25.2   1012.2    0.00 
 261   21:10   100.00  99999.0   99999  99999.0   99999   99999.0   99999.0   99999.00 
 261   21:20   100.00  99999.0   99999  99999.0   99999   99999.0   99999.0   99999.00 
 261   21:30   100.00  99999.0   99999  99999.0   99999   99999.0   99999.0   99999.00 
 261   21:40   100.00  99999.0   99999  99999.0   99999   99999.0   99999.0   99999.00 
 261   21:50   100.00  99999.0   99999  99999.0   99999   99999.0   99999.0   99999.00 
 261   22:00   100.00  99999.0   99999  99999.0   99999   99999.0   99999.0   99999.00 
 261   22:10   100.00  99999.0   99999  99999.0   99999   99999.0   99999.0   99999.00 
 261   22:20   100.00  99999.0   99999  99999.0   99999   99999.0   99999.0   99999.00 
 261   22:30   100.00  99999.0   99999  99999.0   99999   99999.0   99999.0   99999.00 
 261   22:40   100.00  99999.0   99999  99999.0   99999   99999.0   99999.0   99999.00 
 261   22:50   100.00  99999.0   99999  99999.0   99999   99999.0   99999.0   99999.00 
 261   23:00   100.00  99999.0   99999  99999.0   99999   99999.0   99999.0   99999.00 
 261   23:10   100.00  99999.0   99999  99999.0   99999   99999.0   99999.0   99999.00 
 261   23:20   100.00  99999.0   99999  99999.0   99999   99999.0   99999.0   99999.00 
 261   23:30   100.00  99999.0   99999  99999.0   99999   99999.0   99999.0   99999.00 
 261   23:40   100.00  99999.0   99999  99999.0   99999   99999.0   99999.0   99999.00 
 261   23:50   100.00  99999.0   99999  99999.0   99999   99999.0   99999.0   99999.00 
 262    0:00   100.00  99999.0   99999  99999.0   99999   99999.0   99999.0   99999.00 
 262    0:10   100.00  99999.0   99999  99999.0   99999   99999.0   99999.0   99999.00 
 262    0:20   100.00  99999.0   99999  99999.0   99999   99999.0   99999.0   99999.00 
 262    0:30   100.00  99999.0   99999  99999.0   99999   99999.0   99999.0   99999.00 
 262    0:40   100.00  99999.0   99999  99999.0   99999   99999.0   99999.0   99999.00 
 262    0:50   100.00  99999.0   99999  99999.0   99999   99999.0   99999.0   99999.00 
 262    1:00   100.00  99999.0   99999  99999.0   99999   99999.0   99999.0   99999.00 
 262    1:10   0.00   27.4     0   12.6   305    18.2   1012.9    0.00 
 262    1:20   0.00   27.4     0   10.5   322    15.4   1012.9    0.00 
 262    1:30   0.00   27.3     0    7.5   339    11.2   1012.9    0.00 
 262    1:40   0.00   27.0     0    9.7   319    13.9   1012.9    0.00 
 262    1:50   0.00   26.6     0   10.2   312    14.8   1012.9    0.00 
 262    2:00   0.00   26.5     0   10.0   308    13.8   1012.9    0.00 
 262    2:10   0.00   26.6     0    8.0   310    11.2   1012.9    0.00 
 262    2:20   0.00   26.6     0    9.3   302    12.5   1012.9    0.00 
 262    2:30   0.00   26.5     0    8.9   302    12.1   1012.9    0.00 
 262    2:40   0.00   26.2     0    6.8   308     9.3   1012.9    0.00 
 262    2:50   0.00   25.9     0    4.5   312     5.9   1012.9    0.00 
 262    3:00   0.00   25.8     0    6.0   310     8.0   1012.9    0.00 
 262    3:10   0.00   25.6     0    6.7   305     8.6   1012.9    0.00 
 262    3:20   0.00   25.3     0    6.2   315     8.3   1013.2    0.00 
 262    3:30   0.00   25.0     0    6.2   318     8.4   1013.2    0.00 
 262    3:40   0.00   24.8     0    7.6   322    11.2   1013.2    0.00 
 262    3:50   0.00   24.5     0    8.1   313    10.5   1013.2    0.00 
 262    4:00   0.00   24.3     0    8.7   306    12.3   1013.2    0.00 

Return to Bodega Marine Reserve graphs page.


Western Regional Climate Center,wrcc@dri.edu